Time;durP1;ratioP1;P1;durP2;ratioP2;P2;SDS_P1;SDS_P2;PMS_P1;PMS_P2;Temp;Humidity;BMP_temperature;BMP_pressure;BME280_temperature;BME280_humidity;BME280_pressure;Samples;Min_cycle;Max_cycle;Signal;HPM_P1;HPM_P2
2023/03/20 00:00:37;;;;;;;12.70;4.82;;;6.10;99.90;;;;;;4840430;29;20052;-74
2023/03/20 00:03:02;;;;;;;17.25;5.70;;;6.10;99.90;;;;;;4825339;29;20049;-74
2023/03/20 00:05:30;;;;;;;19.37;5.43;;;6.10;99.90;;;;;;4837854;29;20494;-73
2023/03/20 00:07:57;;;;;;;13.82;5.53;;;6.10;99.90;;;;;;4841207;29;20514;-73
2023/03/20 00:10:36;;;;;;;21.85;6.72;;;6.20;99.90;;;;;;4824279;29;20836;-73
2023/03/20 00:13:04;;;;;;;16.58;5.57;;;6.20;99.90;;;;;;4840071;29;20045;-73
2023/03/20 00:15:39;;;;;;;13.75;5.57;;;6.20;99.90;;;;;;4840869;29;20514;-73
2023/03/20 00:18:25;;;;;;;20.58;5.57;;;6.30;99.90;;;;;;4825877;29;20056;-73
2023/03/20 00:20:52;;;;;;;17.50;5.30;;;6.30;99.90;;;;;;4824831;29;20060;-73
2023/03/20 00:23:18;;;;;;;20.25;4.82;;;6.30;99.90;;;;;;4806721;29;20050;-73
2023/03/20 00:25:45;;;;;;;16.52;5.10;;;6.30;99.90;;;;;;4824743;29;20037;-73
2023/03/20 00:28:44;;;;;;;18.55;5.20;;;6.30;99.90;;;;;;4825451;29;20045;-73
2023/03/20 00:31:23;;;;;;;16.50;4.57;;;6.40;99.90;;;;;;4815330;29;20049;-73
2023/03/20 00:33:49;;;;;;;17.13;4.57;;;6.40;99.90;;;;;;4839813;29;20049;-73
2023/03/20 00:36:15;;;;;;;17.92;4.75;;;6.40;99.90;;;;;;4839253;29;20045;-73
2023/03/20 00:38:41;;;;;;;17.50;4.57;;;6.40;99.90;;;;;;4807079;29;20046;-73
2023/03/20 00:41:30;;;;;;;13.87;4.63;;;6.40;99.90;;;;;;4823680;29;20068;-73
2023/03/20 00:44:00;;;;;;;14.98;4.72;;;6.40;99.90;;;;;;4832006;29;20041;-73
2023/03/20 00:46:26;;;;;;;15.75;5.05;;;6.40;99.90;;;;;;4850904;29;20049;-73
2023/03/20 00:48:53;;;;;;;16.02;4.75;;;6.40;99.90;;;;;;4824334;29;20514;-73
2023/03/20 00:51:19;;;;;;;17.17;4.90;;;6.40;99.90;;;;;;4807377;29;20046;-73
2023/03/20 00:53:45;;;;;;;24.37;5.47;;;6.40;99.90;;;;;;4851288;29;20053;-73
2023/03/20 00:56:34;;;;;;;14.97;4.87;;;6.40;99.90;;;;;;4825652;29;20429;-73
2023/03/20 00:59:02;;;;;;;14.40;4.90;;;6.50;99.90;;;;;;4831005;29;20122;-73
2023/03/20 01:01:30;;;;;;;16.17;5.35;;;6.50;99.90;;;;;;4834034;29;20081;-73
2023/03/20 01:03:56;;;;;;;15.45;4.70;;;6.50;99.90;;;;;;4824900;29;20069;-73
2023/03/20 01:06:22;;;;;;;15.18;5.05;;;6.50;99.90;;;;;;4810640;29;20567;-73
2023/03/20 01:08:47;;;;;;;13.47;5.50;;;6.50;99.90;;;;;;4808946;29;20045;-73
2023/03/20 01:11:17;;;;;;;16.43;5.57;;;6.50;99.90;;;;;;4839417;29;20041;-74
2023/03/20 01:13:43;;;;;;;18.05;5.40;;;6.50;99.90;;;;;;4822528;29;20049;-73
2023/03/20 01:16:20;;;;;;;12.27;4.83;;;6.60;99.90;;;;;;4822958;29;20137;-73
2023/03/20 01:18:46;;;;;;;12.98;4.90;;;6.60;99.90;;;;;;4823918;29;20054;-73
2023/03/20 01:21:12;;;;;;;14.95;5.35;;;6.60;99.90;;;;;;4819736;29;20116;-73
2023/03/20 01:23:38;;;;;;;17.08;5.80;;;6.60;99.90;;;;;;4838551;29;20050;-73
2023/03/20 01:26:33;;;;;;;14.43;5.80;;;6.60;99.90;;;;;;4810762;29;20454;-73
2023/03/20 01:28:59;;;;;;;16.23;6.25;;;6.60;99.90;;;;;;4838905;29;20297;-73
2023/03/20 01:31:24;;;;;;;22.83;6.57;;;6.60;99.90;;;;;;4793182;29;20053;-73
2023/03/20 01:33:50;;;;;;;12.43;6.07;;;6.70;99.90;;;;;;4808830;29;20173;-73
2023/03/20 01:36:21;;;;;;;18.83;6.72;;;6.70;99.90;;;;;;4824082;29;20045;-73
2023/03/20 01:38:55;;;;;;;20.95;6.68;;;6.70;99.90;;;;;;4837745;29;20068;-73
2023/03/20 01:41:23;;;;;;;16.20;6.35;;;6.70;99.90;;;;;;4820860;29;20045;-73
2023/03/20 01:43:49;;;;;;;13.93;6.35;;;6.70;99.90;;;;;;4838115;29;20097;-73
2023/03/20 01:46:29;;;;;;;15.57;6.38;;;6.70;99.90;;;;;;4846749;29;20042;-73
2023/03/20 01:49:07;;;;;;;18.27;7.00;;;6.70;99.90;;;;;;4839566;29;20060;-73
2023/03/20 01:51:35;;;;;;;14.32;6.97;;;6.70;99.90;;;;;;4821846;29;20559;-73
2023/03/20 01:54:14;;;;;;;17.50;6.88;;;6.80;99.90;;;;;;4839686;29;20049;-73
2023/03/20 01:56:46;;;;;;;20.55;7.00;;;6.80;99.90;;;;;;4823104;29;20423;-73
2023/03/20 01:59:21;;;;;;;16.60;7.30;;;6.80;99.90;;;;;;4839836;29;20526;-73
2023/03/20 02:01:47;;;;;;;16.60;7.25;;;6.80;99.90;;;;;;4838709;29;20060;-73
2023/03/20 02:04:15;;;;;;;20.67;7.47;;;6.80;99.90;;;;;;4823640;29;20422;-73
2023/03/20 02:06:43;;;;;;;19.63;6.72;;;6.80;99.90;;;;;;4834579;29;20049;-73
2023/03/20 02:09:10;;;;;;;16.92;6.50;;;6.80;99.90;;;;;;4809052;29;20056;-73
2023/03/20 02:11:38;;;;;;;18.02;6.18;;;6.80;99.90;;;;;;4823618;29;20049;-75
2023/03/20 02:14:05;;;;;;;14.35;5.97;;;6.80;99.90;;;;;;4838522;29;20057;-74
2023/03/20 02:16:31;;;;;;;10.43;5.88;;;6.80;99.90;;;;;;4824034;29;20864;-74
2023/03/20 02:18:57;;;;;;;14.03;6.03;;;6.90;99.90;;;;;;4822081;29;20045;-74
2023/03/20 02:21:45;;;;;;;14.02;6.07;;;6.90;99.90;;;;;;4823417;29;20080;-75
2023/03/20 02:24:29;;;;;;;17.30;6.53;;;6.90;99.90;;;;;;4832723;29;20037;-74
2023/03/20 02:27:16;;;;;;;14.38;6.68;;;6.90;99.90;;;;;;4839098;29;20065;-74
2023/03/20 02:29:44;;;;;;;17.75;6.60;;;6.90;99.90;;;;;;4835845;29;20301;-74
2023/03/20 02:32:28;;;;;;;15.05;6.95;;;6.90;99.90;;;;;;4837188;29;20065;-74
2023/03/20 02:35:16;;;;;;;21.23;7.55;;;6.90;99.90;;;;;;4833200;29;20049;-74
2023/03/20 02:38:20;;;;;;;17.52;7.35;;;6.90;99.90;;;;;;4835947;29;20052;-74
2023/03/20 02:41:31;;;;;;;13.38;6.15;;;7.00;99.90;;;;;;4794525;29;20046;-74
2023/03/20 02:44:13;;;;;;;15.98;6.10;;;7.00;99.90;;;;;;4815999;29;20126;-74
2023/03/20 02:46:46;;;;;;;13.07;6.30;;;7.00;99.90;;;;;;4837495;29;20051;-74
2023/03/20 02:49:36;;;;;;;14.73;6.47;;;7.00;99.90;;;;;;4834230;29;21220;-74
2023/03/20 02:52:24;;;;;;;13.23;5.45;;;7.00;99.90;;;;;;4836465;29;20080;-74
2023/03/20 02:55:24;;;;;;;14.23;6.47;;;7.00;99.90;;;;;;4826772;29;20076;-74
2023/03/20 02:58:07;;;;;;;11.77;5.57;;;7.00;99.90;;;;;;4821347;29;20049;-74
2023/03/20 03:01:02;;;;;;;15.98;5.20;;;7.00;99.90;;;;;;4853656;29;20052;-74
2023/03/20 03:03:42;;;;;;;13.30;5.32;;;7.10;99.90;;;;;;4836276;29;20050;-74
2023/03/20 03:06:35;;;;;;;12.75;5.28;;;7.10;99.90;;;;;;4819269;29;20042;-74
2023/03/20 03:09:04;;;;;;;9.30;5.20;;;7.10;99.90;;;;;;4816952;29;20064;-74
2023/03/20 03:11:35;;;;;;;12.85;5.38;;;7.10;99.90;;;;;;4820174;29;20052;-74
2023/03/20 03:14:02;;;;;;;11.70;5.65;;;7.10;99.90;;;;;;4837782;29;20084;-74
2023/03/20 03:16:32;;;;;;;13.93;6.10;;;7.10;99.90;;;;;;4836795;29;20053;-74
2023/03/20 03:19:08;;;;;;;12.57;6.07;;;7.10;99.90;;;;;;4835364;29;20041;-74
2023/03/20 03:21:37;;;;;;;14.30;6.57;;;7.10;99.90;;;;;;4852043;29;20126;-74
2023/03/20 03:24:04;;;;;;;14.02;6.60;;;7.10;99.90;;;;;;4836956;29;20059;-74
2023/03/20 03:26:36;;;;;;;15.27;6.63;;;7.10;99.90;;;;;;4823506;29;20380;-73
2023/03/20 03:29:15;;;;;;;15.07;7.05;;;7.10;99.90;;;;;;4816819;29;20045;-73
2023/03/20 03:31:43;;;;;;;16.73;7.60;;;7.10;99.90;;;;;;4831704;29;20058;-74
2023/03/20 03:34:14;;;;;;;16.42;7.97;;;7.10;99.90;;;;;;4827976;29;20041;-74
2023/03/20 03:36:46;;;;;;;13.40;7.53;;;7.10;99.90;;;;;;4821637;29;20054;-74
2023/03/20 03:39:27;;;;;;;16.50;7.82;;;7.00;99.90;;;;;;4837796;29;20526;-74
2023/03/20 03:42:01;;;;;;;15.80;7.95;;;7.00;99.90;;;;;;4824252;29;20101;-74
2023/03/20 03:44:36;;;;;;;16.88;8.10;;;7.00;99.90;;;;;;4836081;29;20156;-73
2023/03/20 03:47:07;;;;;;;17.73;8.13;;;7.00;99.90;;;;;;4836612;29;20132;-74
2023/03/20 03:49:38;;;;;;;21.83;9.75;;;7.00;99.90;;;;;;4838018;29;20193;-74
2023/03/20 03:52:09;;;;;;;19.50;10.23;;;7.00;99.90;;;;;;4807596;29;20133;-74
2023/03/20 03:54:45;;;;;;;20.00;10.35;;;7.00;99.90;;;;;;4823505;29;20503;-74
2023/03/20 03:57:15;;;;;;;18.67;9.57;;;6.90;99.90;;;;;;4836526;29;20045;-74
2023/03/20 03:59:44;;;;;;;20.77;10.82;;;6.90;99.90;;;;;;4852359;29;20050;-74
2023/03/20 04:02:11;;;;;;;21.52;10.15;;;6.90;99.90;;;;;;4852641;29;20042;-74
2023/03/20 04:04:42;;;;;;;18.90;10.02;;;6.90;99.90;;;;;;4823186;29;20045;-74
2023/03/20 04:07:07;;;;;;;20.38;9.85;;;6.90;99.90;;;;;;4833180;29;20046;-74
2023/03/20 04:09:33;;;;;;;22.77;10.47;;;6.90;99.90;;;;;;4805761;29;20057;-74
2023/03/20 04:11:59;;;;;;;19.63;9.90;;;6.90;99.90;;;;;;4849950;29;20080;-74
2023/03/20 04:14:25;;;;;;;19.33;9.10;;;6.90;99.90;;;;;;4821811;29;20048;-74
2023/03/20 04:16:50;;;;;;;20.27;10.33;;;6.90;99.90;;;;;;4817677;29;20061;-74
2023/03/20 04:19:16;;;;;;;20.73;9.30;;;6.90;99.90;;;;;;4821804;29;20041;-74
2023/03/20 04:21:42;;;;;;;19.33;9.77;;;6.90;99.90;;;;;;4821871;29;20094;-74
2023/03/20 04:24:08;;;;;;;22.23;9.23;;;6.90;99.90;;;;;;4821704;29;20121;-74
2023/03/20 04:26:33;;;;;;;18.33;9.20;;;6.90;99.90;;;;;;4805747;29;20050;-74
2023/03/20 04:29:00;;;;;;;19.33;9.73;;;6.90;99.90;;;;;;4819635;29;20042;-73
2023/03/20 04:31:27;;;;;;;21.77;9.95;;;6.90;99.90;;;;;;4819275;29;20053;-73
2023/03/20 04:33:53;;;;;;;24.40;10.50;;;6.80;99.90;;;;;;4807630;29;20053;-73
2023/03/20 04:36:18;;;;;;;21.73;11.70;;;6.80;99.90;;;;;;4823135;29;20403;-73
2023/03/20 04:38:44;;;;;;;25.67;11.57;;;6.80;99.90;;;;;;4836465;29;20132;-73
2023/03/20 04:41:10;;;;;;;23.33;11.77;;;6.80;99.90;;;;;;4834321;29;20418;-74
2023/03/20 04:43:35;;;;;;;21.97;11.93;;;6.80;99.90;;;;;;4817692;29;20044;-74
2023/03/20 04:46:01;;;;;;;26.87;12.37;;;6.80;99.90;;;;;;4820339;29;20210;-74
2023/03/20 04:48:27;;;;;;;26.97;13.43;;;6.70;99.90;;;;;;4833170;29;20089;-73
2023/03/20 04:50:53;;;;;;;28.07;14.57;;;6.70;99.90;;;;;;4808627;29;20598;-73
2023/03/20 04:53:19;;;;;;;29.67;14.20;;;6.70;99.90;;;;;;4825421;29;20057;-73
2023/03/20 04:55:44;;;;;;;31.63;15.67;;;6.70;99.90;;;;;;4822171;29;20054;-73
2023/03/20 04:58:11;;;;;;;32.20;15.07;;;6.70;99.90;;;;;;4824929;29;20414;-73
2023/03/20 05:00:37;;;;;;;28.67;14.75;;;6.70;99.90;;;;;;4808524;29;20372;-73
2023/03/20 05:03:03;;;;;;;30.33;14.07;;;6.70;99.90;;;;;;4824930;29;20509;-73
2023/03/20 05:05:29;;;;;;;30.02;14.40;;;6.70;99.90;;;;;;4824965;29;20379;-74
2023/03/20 05:07:55;;;;;;;27.23;13.82;;;6.70;99.90;;;;;;4809897;29;20054;-74
2023/03/20 05:10:21;;;;;;;30.77;13.75;;;6.70;99.90;;;;;;4854889;29;20049;-73
2023/03/20 05:12:47;;;;;;;23.57;12.63;;;6.70;99.90;;;;;;4826087;29;20057;-73
2023/03/20 05:15:12;;;;;;;30.30;13.70;;;6.70;99.90;;;;;;4809451;29;20050;-73
2023/03/20 05:17:38;;;;;;;30.27;14.20;;;6.70;99.90;;;;;;4809007;29;20378;-74
2023/03/20 05:20:05;;;;;;;24.33;12.93;;;6.70;99.90;;;;;;4824112;29;20086;-74
2023/03/20 05:22:31;;;;;;;28.27;13.52;;;6.70;99.90;;;;;;4810260;29;20048;-74
2023/03/20 05:24:56;;;;;;;29.97;13.30;;;6.70;99.90;;;;;;4792019;29;20045;-73
2023/03/20 05:27:22;;;;;;;26.73;13.63;;;6.60;99.90;;;;;;4821853;29;20045;-74
2023/03/20 05:29:48;;;;;;;30.53;13.10;;;6.70;99.90;;;;;;4822311;29;20169;-74
2023/03/20 05:32:14;;;;;;;27.33;13.63;;;6.70;99.90;;;;;;4809322;29;20145;-74
2023/03/20 05:34:40;;;;;;;29.15;14.02;;;6.60;99.90;;;;;;4822950;29;20049;-73
2023/03/20 05:37:06;;;;;;;31.97;15.20;;;6.70;99.90;;;;;;4792776;29;20433;-73
2023/03/20 05:39:31;;;;;;;27.87;13.77;;;6.60;99.90;;;;;;4824580;29;20389;-74
2023/03/20 05:41:57;;;;;;;24.33;13.57;;;6.60;99.90;;;;;;4818016;29;20046;-74
2023/03/20 05:44:23;;;;;;;30.60;14.53;;;6.60;99.90;;;;;;4824696;29;20136;-74
2023/03/20 05:46:48;;;;;;;24.17;13.17;;;6.60;99.90;;;;;;4814834;29;20041;-74
2023/03/20 05:49:14;;;;;;;31.83;14.77;;;6.60;99.90;;;;;;4824514;29;20049;-74
2023/03/20 05:51:40;;;;;;;30.87;13.87;;;6.60;99.90;;;;;;4832368;29;20502;-74
2023/03/20 05:54:06;;;;;;;25.67;14.57;;;6.70;99.90;;;;;;4810440;29;20095;-74
2023/03/20 05:56:32;;;;;;;29.83;15.23;;;6.60;99.90;;;;;;4807944;29;20080;-73
2023/03/20 05:58:57;;;;;;;28.43;14.23;;;6.70;99.90;;;;;;4812787;29;20041;-73
2023/03/20 06:01:23;;;;;;;31.70;15.80;;;6.60;99.90;;;;;;4820690;29;20068;-73
2023/03/20 06:03:49;;;;;;;29.57;15.17;;;6.60;99.90;;;;;;4840511;29;20128;-74
2023/03/20 06:06:16;;;;;;;26.37;15.03;;;6.60;99.90;;;;;;4824835;29;20049;-74
2023/03/20 06:08:42;;;;;;;31.13;16.13;;;6.60;99.90;;;;;;4823236;29;20064;-73
2023/03/20 06:11:10;;;;;;;28.70;15.25;;;6.60;99.90;;;;;;4825667;29;20120;-73
2023/03/20 06:13:35;;;;;;;28.08;15.63;;;6.60;99.90;;;;;;4825400;29;20053;-73
2023/03/20 06:16:02;;;;;;;29.57;17.03;;;6.70;99.90;;;;;;4822812;29;20049;-73
2023/03/20 06:18:27;;;;;;;31.35;15.07;;;6.70;99.90;;;;;;4807343;29;20507;-73
2023/03/20 06:20:55;;;;;;;30.70;15.60;;;6.70;99.90;;;;;;4808174;29;20042;-73
2023/03/20 06:23:21;;;;;;;29.52;15.82;;;6.70;99.90;;;;;;4840650;29;20410;-73
2023/03/20 06:25:47;;;;;;;29.20;15.45;;;6.70;99.90;;;;;;4825975;29;20427;-73
2023/03/20 06:28:12;;;;;;;29.97;15.63;;;6.70;99.90;;;;;;4821582;29;20144;-73
2023/03/20 06:30:38;;;;;;;31.07;16.47;;;6.70;99.90;;;;;;4807518;29;20775;-73
2023/03/20 06:33:07;;;;;;;35.67;17.20;;;6.70;99.90;;;;;;4820733;29;20531;-73
2023/03/20 06:35:33;;;;;;;31.80;15.40;;;6.70;99.90;;;;;;4821355;29;20080;-74
2023/03/20 06:38:05;;;;;;;33.43;15.90;;;6.70;99.90;;;;;;4805919;29;20547;-75
2023/03/20 06:40:33;;;;;;;33.28;15.68;;;6.80;99.90;;;;;;4823764;29;20053;-73
2023/03/20 06:42:59;;;;;;;28.27;15.27;;;6.80;99.90;;;;;;4808053;29;20426;-73
2023/03/20 06:45:25;;;;;;;30.57;16.27;;;6.80;99.90;;;;;;4830161;29;20038;-73
2023/03/20 06:47:51;;;;;;;31.10;15.90;;;6.90;99.90;;;;;;4819268;29;20490;-73
2023/03/20 06:50:16;;;;;;;31.83;15.77;;;6.90;99.90;;;;;;4805185;29;20065;-73
2023/03/20 06:52:43;;;;;;;33.03;16.40;;;7.00;99.90;;;;;;4823725;29;20121;-73
2023/03/20 06:55:09;;;;;;;35.17;16.98;;;7.00;99.90;;;;;;4807543;29;20046;-73
2023/03/20 06:57:35;;;;;;;27.77;16.47;;;7.10;99.90;;;;;;4805675;29;20064;-73
2023/03/20 07:00:01;;;;;;;28.93;16.53;;;7.10;99.90;;;;;;4817150;29;20049;-73
2023/03/20 07:02:27;;;;;;;35.08;18.13;;;7.10;99.90;;;;;;4818103;29;20077;-73
2023/03/20 07:04:52;;;;;;;29.98;16.67;;;7.20;99.90;;;;;;4822812;29;20048;-73
2023/03/20 07:07:18;;;;;;;33.30;17.20;;;7.20;99.90;;;;;;4805514;29;20053;-74
2023/03/20 07:09:44;;;;;;;33.17;17.97;;;7.30;99.90;;;;;;4821549;29;20081;-73
2023/03/20 07:12:15;;;;;;;34.67;17.17;;;7.40;99.90;;;;;;4838837;29;20063;-73
2023/03/20 07:14:41;;;;;;;35.40;19.13;;;7.40;99.90;;;;;;4807877;29;20050;-73
2023/03/20 07:17:08;;;;;;;32.38;17.45;;;7.50;99.90;;;;;;4834194;29;20082;-73
2023/03/20 07:19:35;;;;;;;32.55;16.45;;;7.50;99.90;;;;;;4819157;29;20049;-73
2023/03/20 07:22:03;;;;;;;33.72;17.70;;;7.50;99.90;;;;;;4802951;29;20046;-73
2023/03/20 07:24:30;;;;;;;32.53;16.95;;;7.50;99.90;;;;;;4838620;29;20121;-73
2023/03/20 07:26:56;;;;;;;32.15;16.90;;;7.50;99.90;;;;;;4807750;29;20329;-73
2023/03/20 07:29:21;;;;;;;30.20;15.87;;;7.50;99.90;;;;;;4837098;29;20594;-73
2023/03/20 07:31:47;;;;;;;30.87;16.83;;;7.60;99.90;;;;;;4838247;29;20539;-73
2023/03/20 07:34:13;;;;;;;31.07;16.13;;;7.60;99.90;;;;;;4807107;29;20125;-73
2023/03/20 07:36:40;;;;;;;29.67;15.90;;;7.60;99.90;;;;;;4823928;29;20116;-73
2023/03/20 07:39:07;;;;;;;28.75;14.82;;;7.60;99.90;;;;;;4819688;29;20550;-73
2023/03/20 07:41:34;;;;;;;29.83;16.67;;;7.70;99.90;;;;;;4816336;29;20306;-73
2023/03/20 07:44:00;;;;;;;31.35;16.35;;;7.70;99.90;;;;;;4820548;29;20384;-73
2023/03/20 07:46:26;;;;;;;31.23;16.07;;;7.80;99.90;;;;;;4852700;29;20173;-73
2023/03/20 07:48:51;;;;;;;26.00;14.97;;;7.80;99.90;;;;;;4835272;29;20048;-73
2023/03/20 07:51:17;;;;;;;26.37;15.40;;;7.80;99.90;;;;;;4806624;29;20045;-73
2023/03/20 07:53:43;;;;;;;26.03;15.27;;;7.80;99.90;;;;;;4821071;29;20299;-73
2023/03/20 07:56:09;;;;;;;24.17;14.70;;;7.90;99.90;;;;;;4807364;29;20060;-73
2023/03/20 07:58:35;;;;;;;29.80;15.38;;;7.90;99.90;;;;;;4805375;29;20431;-73
2023/03/20 08:01:01;;;;;;;23.83;14.60;;;8.00;99.90;;;;;;4821698;29;20038;-73
2023/03/20 08:03:27;;;;;;;25.02;14.02;;;8.00;99.90;;;;;;4805668;29;20042;-73
2023/03/20 08:05:53;;;;;;;23.47;13.97;;;8.10;99.90;;;;;;4808054;29;20348;-73
2023/03/20 08:08:19;;;;;;;25.67;13.38;;;8.10;99.90;;;;;;4827623;29;20516;-73
2023/03/20 08:10:45;;;;;;;23.93;13.27;;;8.10;99.90;;;;;;4818247;29;20050;-73
2023/03/20 08:13:10;;;;;;;25.17;13.67;;;8.10;99.90;;;;;;4844742;29;20038;-73
2023/03/20 08:15:36;;;;;;;21.73;12.47;;;8.20;99.90;;;;;;4838407;29;20055;-73
2023/03/20 08:18:02;;;;;;;25.13;13.63;;;8.20;99.90;;;;;;4809864;29;20444;-73
2023/03/20 08:20:28;;;;;;;29.00;13.93;;;8.30;99.90;;;;;;4808928;29;20102;-73
2023/03/20 08:22:53;;;;;;;23.80;12.37;;;8.30;99.90;;;;;;4806717;29;20551;-74
2023/03/20 08:25:19;;;;;;;22.17;12.83;;;8.30;99.90;;;;;;4841380;29;20037;-73
2023/03/20 08:27:45;;;;;;;22.27;12.33;;;8.40;99.90;;;;;;4822024;29;20057;-73
2023/03/20 08:30:12;;;;;;;20.97;11.87;;;8.50;99.90;;;;;;4838790;29;20085;-73
2023/03/20 08:32:38;;;;;;;22.25;11.73;;;8.60;99.90;;;;;;4809859;29;20313;-73
2023/03/20 08:35:05;;;;;;;22.40;12.60;;;8.60;99.90;;;;;;4806812;29;20137;-73
2023/03/20 08:37:30;;;;;;;20.60;12.43;;;8.70;99.90;;;;;;4823829;29;20106;-73
2023/03/20 08:39:56;;;;;;;23.87;12.13;;;8.70;99.90;;;;;;4803749;29;20049;-73
2023/03/20 08:42:22;;;;;;;22.57;12.87;;;8.80;99.90;;;;;;4849881;29;20122;-73
2023/03/20 08:44:48;;;;;;;22.30;11.00;;;8.80;99.90;;;;;;4836760;29;20038;-73
2023/03/20 08:47:13;;;;;;;21.23;12.00;;;8.80;99.90;;;;;;4794745;29;20577;-73
2023/03/20 08:49:39;;;;;;;22.50;11.67;;;8.80;99.90;;;;;;4823867;29;20128;-73
2023/03/20 08:52:05;;;;;;;22.73;10.87;;;8.80;99.90;;;;;;4800880;29;20045;-73
2023/03/20 08:54:32;;;;;;;17.75;11.27;;;8.80;99.90;;;;;;4822680;29;20421;-73
2023/03/20 08:56:58;;;;;;;19.73;11.55;;;8.80;99.90;;;;;;4836470;29;20600;-73
2023/03/20 08:59:24;;;;;;;21.33;11.27;;;8.80;99.90;;;;;;4804296;29;20124;-73
2023/03/20 09:01:49;;;;;;;18.77;11.23;;;8.90;99.90;;;;;;4808592;29;20121;-73
2023/03/20 09:04:15;;;;;;;22.10;10.30;;;8.90;99.90;;;;;;4822043;29;20486;-73
2023/03/20 09:06:41;;;;;;;21.70;11.23;;;9.00;99.90;;;;;;4817819;29;20604;-73
2023/03/20 09:09:07;;;;;;;19.23;11.30;;;9.10;99.90;;;;;;4816961;29;20045;-73
2023/03/20 09:11:33;;;;;;;18.27;10.53;;;9.10;99.90;;;;;;4824633;29;20041;-73
2023/03/20 09:13:59;;;;;;;25.13;11.53;;;9.10;99.90;;;;;;4828006;29;20451;-73
2023/03/20 09:16:25;;;;;;;23.27;11.52;;;9.30;99.90;;;;;;4823134;29;20033;-73
2023/03/20 09:18:51;;;;;;;25.47;11.30;;;9.30;99.90;;;;;;4808655;29;20045;-73
2023/03/20 09:21:17;;;;;;;21.83;11.43;;;9.30;99.90;;;;;;4818272;29;20310;-73
2023/03/20 09:23:43;;;;;;;18.97;11.00;;;9.40;99.90;;;;;;4814372;29;20374;-73
2023/03/20 09:26:08;;;;;;;20.70;10.27;;;9.50;99.90;;;;;;4808943;29;20052;-73
2023/03/20 09:28:34;;;;;;;25.50;11.17;;;9.50;99.90;;;;;;4837642;29;20042;-73
2023/03/20 09:31:00;;;;;;;20.97;10.77;;;9.60;99.90;;;;;;4808779;29;20470;-73
2023/03/20 09:33:26;;;;;;;26.80;11.67;;;9.50;99.90;;;;;;4824838;29;20089;-74
2023/03/20 09:35:52;;;;;;;22.87;11.10;;;9.50;99.90;;;;;;4832455;29;20313;-73
2023/03/20 09:38:18;;;;;;;20.40;10.77;;;9.40;99.90;;;;;;4809100;29;20306;-73
2023/03/20 09:40:58;;;;;;;20.03;10.20;;;9.40;99.90;;;;;;4824957;29;20048;-73
2023/03/20 09:43:37;;;;;;;18.20;10.37;;;9.40;99.90;;;;;;4823865;29;20076;-73
2023/03/20 09:46:40;;;;;;;19.80;10.33;;;9.30;99.90;;;;;;4824699;29;20293;-73
2023/03/20 09:49:17;;;;;;;23.40;10.77;;;9.30;99.90;;;;;;4832161;29;20339;-73
2023/03/20 09:51:55;;;;;;;17.95;9.82;;;9.30;99.90;;;;;;4833467;29;20806;-73
2023/03/20 09:54:28;;;;;;;18.53;9.27;;;9.20;99.90;;;;;;4855251;29;20107;-73
2023/03/20 09:56:55;;;;;;;22.80;8.63;;;9.20;99.90;;;;;;4824686;29;20282;-73
2023/03/20 09:59:24;;;;;;;18.57;8.90;;;9.30;99.90;;;;;;4836557;29;20298;-73
2023/03/20 10:02:04;;;;;;;21.27;9.20;;;9.30;99.90;;;;;;4820688;29;20298;-73
2023/03/20 10:04:32;;;;;;;24.50;9.35;;;9.30;99.90;;;;;;4824452;29;20656;-73
2023/03/20 10:06:57;;;;;;;20.95;8.38;;;9.20;99.90;;;;;;4839876;29;20075;-73
2023/03/20 10:09:26;;;;;;;17.83;8.40;;;9.30;99.90;;;;;;4823950;29;20461;-73
2023/03/20 10:12:08;;;;;;;20.63;9.35;;;9.30;99.90;;;;;;4824517;29;20182;-73
2023/03/20 10:14:40;;;;;;;17.20;9.10;;;9.30;99.90;;;;;;4832690;29;20053;-73
2023/03/20 10:17:57;;;;;;;20.30;8.77;;;9.40;99.90;;;;;;4840293;29;20046;-73
2023/03/20 10:20:42;;;;;;;19.97;8.53;;;9.40;99.90;;;;;;4830176;29;20723;-73
2023/03/20 10:23:46;;;;;;;16.73;9.07;;;9.40;99.90;;;;;;4838649;29;20642;-73
2023/03/20 10:26:15;;;;;;;19.98;9.85;;;9.40;99.90;;;;;;4793721;29;20059;-73
2023/03/20 10:29:17;;;;;;;22.42;9.90;;;9.40;99.90;;;;;;4851431;29;20477;-73
2023/03/20 10:31:47;;;;;;;20.97;8.73;;;9.40;99.90;;;;;;4854950;29;20419;-73
2023/03/20 10:34:15;;;;;;;16.47;8.03;;;9.30;99.90;;;;;;4844000;29;20286;-73
2023/03/20 10:37:04;;;;;;;20.50;8.03;;;9.20;99.90;;;;;;4839241;29;20305;-73
2023/03/20 10:39:35;;;;;;;15.60;8.25;;;9.20;99.90;;;;;;4824246;29;20298;-73
2023/03/20 10:42:09;;;;;;;19.33;7.80;;;9.20;99.90;;;;;;4823823;29;20164;-73
2023/03/20 10:44:42;;;;;;;23.80;7.82;;;9.20;99.90;;;;;;4839484;29;20290;-73
2023/03/20 10:47:16;;;;;;;17.50;8.02;;;9.20;99.90;;;;;;4824088;29;20042;-73
2023/03/20 10:49:47;;;;;;;20.88;8.32;;;9.30;99.90;;;;;;4838763;29;20056;-73
2023/03/20 10:52:20;;;;;;;15.85;8.27;;;9.30;99.90;;;;;;4838909;29;20057;-73
2023/03/20 10:54:55;;;;;;;21.15;8.93;;;9.20;99.90;;;;;;4815824;29;20049;-73
2023/03/20 10:57:25;;;;;;;19.30;9.73;;;9.20;99.90;;;;;;4838957;29;20100;-73
2023/03/20 10:59:52;;;;;;;16.77;8.77;;;9.10;99.90;;;;;;4853879;29;20294;-73
2023/03/20 11:02:20;;;;;;;20.75;9.10;;;9.10;99.90;;;;;;4823316;29;20290;-73
2023/03/20 11:04:46;;;;;;;20.57;8.80;;;9.10;99.90;;;;;;4854502;29;20045;-73
2023/03/20 11:07:32;;;;;;;16.65;8.30;;;9.20;99.90;;;;;;4808421;29;20408;-75
2023/03/20 11:10:04;;;;;;;20.10;9.47;;;9.20;99.90;;;;;;4823352;29;20451;-74
2023/03/20 11:12:38;;;;;;;20.13;9.90;;;9.20;99.90;;;;;;4838553;29;20305;-74
2023/03/20 11:15:19;;;;;;;22.43;9.50;;;9.20;99.90;;;;;;4854242;29;20056;-74
2023/03/20 11:18:06;;;;;;;19.50;9.25;;;9.20;99.90;;;;;;4837479;29;20378;-74
2023/03/20 11:20:36;;;;;;;22.40;9.80;;;9.10;99.90;;;;;;4815092;29;20041;-74
2023/03/20 11:23:04;;;;;;;19.47;9.77;;;8.90;99.90;;;;;;4826192;29;20679;-74
2023/03/20 11:25:37;;;;;;;23.50;11.70;;;8.80;99.90;;;;;;4838684;29;20290;-74
2023/03/20 11:28:24;;;;;;;19.48;10.63;;;8.70;99.90;;;;;;4834501;29;20053;-73
2023/03/20 11:30:57;;;;;;;22.43;10.53;;;8.60;99.90;;;;;;4838788;29;20081;-74
2023/03/20 11:33:26;;;;;;;21.67;11.10;;;8.50;99.90;;;;;;4818307;29;20309;-74
2023/03/20 11:35:55;;;;;;;24.83;11.02;;;8.40;99.90;;;;;;4804483;29;20503;-74
2023/03/20 11:38:21;;;;;;;24.35;11.77;;;8.40;99.90;;;;;;4833227;29;20137;-74
2023/03/20 11:40:51;;;;;;;25.45;12.02;;;8.40;99.90;;;;;;4853360;29;20052;-74
2023/03/20 11:43:26;;;;;;;23.10;12.30;;;8.40;99.90;;;;;;4814599;29;20149;-74
2023/03/20 11:45:58;;;;;;;23.03;11.73;;;8.30;99.90;;;;;;4836534;29;20049;-74
2023/03/20 11:48:35;;;;;;;20.80;12.63;;;8.40;99.90;;;;;;4829669;29;20057;-74
2023/03/20 11:51:09;;;;;;;23.33;12.13;;;8.40;99.90;;;;;;4823476;29;20041;-74
2023/03/20 11:53:42;;;;;;;27.23;12.38;;;8.30;99.90;;;;;;4826976;29;20041;-74
2023/03/20 11:56:31;;;;;;;25.58;13.13;;;8.30;99.90;;;;;;4842233;29;20046;-74
2023/03/20 11:59:08;;;;;;;22.00;13.27;;;8.30;99.90;;;;;;4828722;29;20081;-74
2023/03/20 12:01:45;;;;;;;20.15;11.88;;;8.20;99.90;;;;;;4820365;29;20081;-73
2023/03/20 12:04:19;;;;;;;23.15;12.07;;;8.20;99.90;;;;;;4841761;29;20102;-73
2023/03/20 12:07:15;;;;;;;23.35;12.23;;;8.20;99.90;;;;;;4826607;29;20049;-73
2023/03/20 12:09:58;;;;;;;21.33;12.45;;;8.20;99.90;;;;;;4826826;29;20123;-73
2023/03/20 12:12:35;;;;;;;22.40;12.10;;;8.10;99.90;;;;;;4842213;29;20380;-73
2023/03/20 12:15:25;;;;;;;20.25;11.88;;;8.10;99.90;;;;;;4826272;29;20573;-73
2023/03/20 12:17:53;;;;;;;16.30;10.93;;;8.10;99.90;;;;;;4820449;29;20167;-73
2023/03/20 12:20:30;;;;;;;16.77;11.80;;;8.10;99.90;;;;;;4847306;29;20389;-73
2023/03/20 12:23:25;;;;;;;25.23;12.60;;;8.10;99.90;;;;;;4826422;29;20041;-73
2023/03/20 12:26:01;;;;;;;19.50;12.02;;;8.20;99.90;;;;;;4777326;29;20055;-73
2023/03/20 12:29:09;;;;;;;20.80;12.45;;;8.20;99.90;;;;;;4820834;29;20054;-73
2023/03/20 12:31:52;;;;;;;21.13;12.65;;;8.20;99.90;;;;;;4816003;29;20064;-73
2023/03/20 12:34:31;;;;;;;19.60;12.30;;;8.20;99.90;;;;;;4836849;29;20045;-73
2023/03/20 12:36:57;;;;;;;18.52;13.07;;;8.20;99.90;;;;;;4833122;29;20045;-73
2023/03/20 12:39:34;;;;;;;21.50;12.97;;;8.20;99.90;;;;;;4840580;29;20072;-73
2023/03/20 12:42:06;;;;;;;19.48;13.25;;;8.20;99.90;;;;;;4826682;29;20502;-73
2023/03/20 12:44:37;;;;;;;20.48;12.88;;;8.20;99.90;;;;;;4842036;29;20104;-73
2023/03/20 12:47:35;;;;;;;23.65;12.82;;;8.20;99.90;;;;;;4841441;29;20060;-73
2023/03/20 12:50:33;;;;;;;16.45;11.93;;;8.20;99.90;;;;;;4833296;29;20060;-73
2023/03/20 12:53:33;;;;;;;19.15;12.18;;;8.30;99.90;;;;;;4816368;29;20050;-73
2023/03/20 12:56:04;;;;;;;18.77;13.02;;;8.30;99.90;;;;;;4825361;29;20045;-73
2023/03/20 12:58:49;;;;;;;19.75;13.77;;;8.30;99.90;;;;;;4840051;29;20057;-73
2023/03/20 13:01:19;;;;;;;19.98;13.75;;;8.30;99.90;;;;;;4825587;29;20152;-73